createdAt,value
2023-11-22T00:01:27.225Z,6.00
2023-11-22T00:03:55.368Z,5.75
2023-11-22T00:06:22.949Z,6.18
2023-11-22T00:08:50.439Z,6.05
2023-11-22T00:11:17.900Z,6.07
2023-11-22T00:13:45.529Z,6.30
2023-11-22T00:16:13.009Z,5.70
2023-11-22T00:18:40.660Z,6.43
2023-11-22T00:21:08.421Z,5.95
2023-11-22T00:23:35.923Z,5.80
2023-11-22T00:26:03.410Z,5.88
2023-11-22T00:28:30.835Z,6.45
2023-11-22T00:30:59.093Z,6.00
2023-11-22T00:33:26.564Z,6.53
2023-11-22T00:35:58.590Z,6.07
2023-11-22T00:38:26.139Z,6.57
2023-11-22T00:40:53.562Z,6.57
2023-11-22T00:43:21.612Z,5.88
2023-11-22T00:45:49.040Z,6.85
2023-11-22T00:48:16.583Z,6.47
2023-11-22T00:50:44.699Z,6.32
2023-11-22T00:53:12.176Z,6.10
2023-11-22T00:55:39.553Z,6.45
2023-11-22T00:58:07.156Z,6.45
2023-11-22T01:00:34.669Z,6.63
2023-11-22T01:03:02.230Z,5.97
2023-11-22T01:05:30.511Z,6.28
2023-11-22T01:07:58.099Z,7.00
2023-11-22T01:10:25.625Z,6.82
2023-11-22T01:12:54.321Z,6.10
2023-11-22T01:15:22.667Z,7.80
2023-11-22T01:17:50.071Z,6.53
2023-11-22T01:20:17.692Z,6.63
2023-11-22T01:22:45.124Z,6.55
2023-11-22T01:25:12.529Z,6.40
2023-11-22T01:27:40.138Z,6.35
2023-11-22T01:30:10.879Z,7.20
2023-11-22T01:32:38.494Z,7.55
2023-11-22T01:35:07.303Z,6.82
2023-11-22T01:37:34.932Z,6.53
2023-11-22T01:40:04.303Z,6.40
2023-11-22T01:42:31.918Z,6.40
2023-11-22T01:44:59.547Z,6.35
2023-11-22T01:47:28.236Z,6.80
2023-11-22T01:49:55.837Z,6.78
2023-11-22T01:52:23.420Z,7.20
2023-11-22T01:54:50.999Z,6.55
2023-11-22T01:57:18.583Z,7.28
2023-11-22T01:59:47.100Z,6.78
2023-11-22T02:02:15.387Z,6.68
2023-11-22T02:04:42.974Z,6.80
2023-11-22T02:07:10.817Z,6.97
2023-11-22T02:09:38.392Z,7.05
2023-11-22T02:12:06.238Z,6.80
2023-11-22T02:14:34.205Z,6.65
2023-11-22T02:17:01.863Z,7.57
2023-11-22T02:19:31.461Z,6.57
2023-11-22T02:21:59.511Z,7.45
2023-11-22T02:24:27.954Z,6.68
2023-11-22T02:26:55.375Z,7.28
2023-11-22T02:29:22.919Z,6.93
2023-11-22T02:31:50.613Z,6.70
2023-11-22T02:34:18.144Z,6.05
2023-11-22T02:36:51.613Z,6.15
2023-11-22T02:39:38.548Z,6.90
2023-11-22T02:42:05.979Z,6.60
2023-11-22T02:44:33.460Z,5.97
2023-11-22T02:47:00.930Z,6.55
2023-11-22T02:49:28.245Z,6.55
2023-11-22T02:51:55.734Z,6.05
2023-11-22T02:54:23.292Z,5.80
2023-11-22T02:56:50.710Z,6.25
2023-11-22T02:59:18.084Z,6.03
2023-11-22T03:01:47.012Z,5.78
2023-11-22T03:04:15.247Z,4.90
2023-11-22T03:06:42.692Z,5.97
2023-11-22T03:09:10.166Z,5.55
2023-11-22T03:11:38.019Z,5.63
2023-11-22T03:14:05.589Z,5.43
2023-11-22T03:16:34.414Z,5.78
2023-11-22T03:19:03.122Z,5.47
2023-11-22T03:21:30.754Z,5.35
2023-11-22T03:23:59.234Z,4.75
2023-11-22T03:26:26.717Z,5.35
2023-11-22T03:28:54.177Z,5.50
2023-11-22T03:31:22.466Z,5.53
2023-11-22T03:33:50.011Z,5.70
2023-11-22T03:36:17.591Z,6.00
2023-11-22T03:38:44.983Z,5.53
2023-11-22T03:41:14.281Z,4.88
2023-11-22T03:43:41.844Z,5.20
2023-11-22T03:46:09.362Z,5.38
2023-11-22T03:48:36.862Z,5.35
2023-11-22T03:51:04.779Z,5.60
2023-11-22T03:53:33.280Z,5.25
2023-11-22T03:56:01.132Z,5.80
2023-11-22T03:58:28.745Z,5.43
2023-11-22T04:00:56.366Z,5.18
2023-11-22T04:03:24.191Z,5.50
2023-11-22T04:05:52.402Z,5.50
2023-11-22T04:08:19.845Z,5.18
2023-11-22T04:10:48.704Z,5.50
2023-11-22T04:13:16.141Z,5.82
2023-11-22T04:15:44.141Z,5.85
2023-11-22T04:18:12.197Z,5.03
2023-11-22T04:20:41.160Z,5.07
2023-11-22T04:23:12.035Z,4.93
2023-11-22T04:25:40.362Z,5.38
2023-11-22T04:28:09.943Z,5.43
2023-11-22T04:30:37.645Z,4.82
2023-11-22T04:33:05.206Z,5.22
2023-11-22T04:35:37.352Z,5.18
2023-11-22T04:38:04.926Z,4.65
2023-11-22T04:40:32.377Z,4.47
2023-11-22T04:42:59.819Z,4.70
2023-11-22T04:45:27.255Z,3.70
2023-11-22T04:47:54.804Z,4.53
2023-11-22T04:50:22.291Z,4.22
2023-11-22T04:52:49.678Z,4.18
2023-11-22T04:55:17.568Z,4.25
2023-11-22T04:57:45.252Z,4.20
2023-11-22T05:00:13.401Z,3.78
2023-11-22T05:02:41.255Z,4.00
2023-11-22T05:05:11.923Z,3.78
2023-11-22T05:07:40.104Z,3.53
2023-11-22T05:10:10.859Z,3.85
2023-11-22T05:12:39.087Z,3.45
2023-11-22T05:15:09.459Z,3.65
2023-11-22T05:17:37.180Z,3.20
2023-11-22T05:20:06.404Z,3.38
2023-11-22T05:22:33.842Z,3.03
2023-11-22T05:25:01.083Z,3.33
2023-11-22T05:27:29.823Z,2.75
2023-11-22T05:29:57.223Z,3.33
2023-11-22T05:32:24.663Z,2.53
2023-11-22T05:34:52.140Z,3.30
2023-11-22T05:37:19.934Z,3.13
2023-11-22T05:39:47.361Z,3.00
2023-11-22T05:42:14.696Z,2.90
2023-11-22T05:44:42.220Z,2.75
2023-11-22T05:47:09.589Z,3.05
2023-11-22T05:49:37.013Z,2.65
2023-11-22T05:52:05.702Z,2.88
2023-11-22T05:54:38.034Z,3.33
2023-11-22T05:57:05.738Z,3.03
2023-11-22T05:59:33.393Z,3.40
2023-11-22T06:02:00.799Z,2.67
2023-11-22T06:04:28.289Z,2.30
2023-11-22T06:06:55.764Z,2.30
2023-11-22T06:09:24.221Z,1.85
2023-11-22T06:11:51.733Z,2.53
2023-11-22T06:14:20.618Z,2.10
2023-11-22T06:16:48.252Z,1.90
2023-11-22T06:19:15.807Z,2.35
2023-11-22T06:21:43.180Z,2.78
2023-11-22T06:24:12.284Z,2.30
2023-11-22T06:26:41.183Z,2.05
2023-11-22T06:29:09.695Z,2.70
2023-11-22T06:31:37.170Z,2.58
2023-11-22T06:34:04.536Z,2.83
2023-11-22T06:36:32.027Z,2.92
2023-11-22T06:39:02.720Z,2.80
2023-11-22T06:41:30.285Z,7.32
2023-11-22T06:43:57.776Z,6.80
2023-11-22T06:46:25.097Z,2.58
2023-11-22T06:49:11.964Z,3.17
2023-11-22T06:51:39.284Z,4.30
2023-11-22T06:54:07.821Z,2.33
2023-11-22T06:56:35.213Z,2.83
2023-11-22T06:59:04.411Z,2.50
2023-11-22T07:01:31.988Z,3.60
2023-11-22T07:04:00.419Z,3.72
2023-11-22T07:06:28.807Z,2.70
2023-11-22T07:08:56.170Z,2.67
2023-11-22T07:11:24.564Z,2.80
2023-11-22T07:13:53.417Z,3.00
2023-11-22T07:16:22.435Z,3.08
2023-11-22T07:18:49.780Z,3.58
2023-11-22T07:21:18.075Z,3.75
2023-11-22T07:23:46.520Z,2.97
2023-11-22T07:26:17.271Z,3.15
2023-11-22T07:28:44.646Z,2.92
2023-11-22T07:31:12.665Z,3.33
2023-11-22T07:33:40.077Z,2.83
2023-11-22T07:36:07.706Z,3.58
2023-11-22T07:38:42.704Z,4.28
2023-11-22T07:41:11.200Z,3.83
2023-11-22T07:43:38.709Z,3.60
2023-11-22T07:46:14.507Z,3.85
2023-11-22T07:48:48.319Z,4.28
2023-11-22T07:51:19.327Z,4.32
2023-11-22T07:53:46.826Z,4.43
2023-11-22T07:56:16.279Z,4.30
2023-11-22T07:58:43.878Z,4.82
2023-11-22T08:01:14.629Z,4.80
2023-11-22T08:03:47.738Z,5.05
2023-11-22T08:08:47.046Z,4.35
2023-11-22T08:33:29.926Z,4.30
2023-11-22T08:38:28.289Z,4.70
2023-11-22T08:43:29.643Z,4.45
2023-11-22T08:46:08.428Z,4.00
2023-11-22T08:51:09.394Z,4.40
2023-11-22T08:53:37.181Z,3.85
2023-11-22T08:56:07.107Z,3.33
2023-11-22T08:58:35.249Z,3.33
2023-11-22T10:14:10.906Z,1.33
2023-11-22T10:16:38.772Z,1.70
2023-11-22T10:19:10.459Z,1.65
2023-11-22T10:21:41.195Z,1.83
2023-11-22T10:24:10.980Z,2.10
2023-11-22T10:26:41.371Z,2.00
2023-11-22T10:29:09.481Z,2.38
2023-11-22T10:31:39.334Z,1.85
2023-11-22T10:34:12.665Z,1.75
2023-11-22T10:36:40.360Z,1.80
2023-11-22T10:39:12.119Z,1.65
2023-11-22T10:41:39.903Z,1.73
2023-11-22T10:44:07.843Z,1.60
2023-11-22T10:46:41.225Z,1.45
2023-11-22T10:49:11.600Z,1.27
2023-11-22T10:51:42.482Z,1.25
2023-11-22T10:54:13.749Z,1.73
2023-11-22T10:56:43.293Z,1.65
2023-11-22T10:59:15.943Z,1.80
2023-11-22T11:05:14.777Z,1.85
2023-11-22T11:07:46.063Z,1.70
2023-11-22T11:10:20.569Z,1.70
2023-11-22T11:12:52.360Z,2.03
2023-11-22T11:15:20.331Z,2.08
2023-11-22T11:17:49.197Z,1.50
2023-11-22T11:20:18.410Z,1.20
2023-11-22T11:22:48.772Z,1.88
2023-11-22T11:25:20.246Z,1.20
2023-11-22T11:28:00.701Z,1.50
2023-11-22T11:30:33.847Z,1.25
2023-11-22T11:33:02.461Z,1.63
2023-11-22T11:35:43.803Z,1.42
2023-11-22T11:38:14.918Z,1.50
2023-11-22T11:40:43.895Z,1.40
2023-11-22T11:43:13.023Z,1.63
2023-11-22T11:45:55.169Z,1.50
2023-11-22T11:48:22.718Z,1.38
2023-11-22T11:50:53.551Z,1.80
2023-11-22T11:53:21.608Z,1.70
2023-11-22T11:56:01.159Z,1.75
2023-11-22T11:58:31.348Z,2.05
2023-11-22T12:00:59.883Z,1.85
2023-11-22T12:03:27.373Z,1.90
2023-11-22T12:05:54.757Z,1.30
2023-11-22T12:08:22.389Z,1.60
2023-11-22T12:10:50.386Z,1.90
2023-11-22T12:13:22.388Z,2.20
2023-11-22T12:15:51.118Z,1.60
2023-11-22T12:18:18.766Z,1.60
2023-11-22T12:21:00.298Z,2.00
2023-11-22T12:23:29.062Z,1.95
2023-11-22T12:26:00.070Z,2.00
2023-11-22T12:28:28.672Z,1.90
2023-11-22T12:31:07.240Z,1.95
2023-11-22T12:33:36.394Z,1.75
2023-11-22T12:36:05.082Z,2.00
2023-11-22T12:38:32.703Z,2.10
2023-11-22T12:41:00.668Z,2.17
2023-11-22T12:43:31.982Z,2.17
2023-11-22T12:46:14.542Z,1.92
2023-11-22T12:48:43.279Z,2.22
2023-11-22T12:51:18.396Z,1.98
2023-11-22T12:53:50.626Z,2.17
2023-11-22T12:57:36.104Z,1.88
2023-11-22T13:00:04.194Z,2.10
2023-11-22T13:02:32.998Z,2.30
2023-11-22T13:05:01.664Z,2.10
2023-11-22T13:07:30.242Z,2.28
2023-11-22T13:09:57.692Z,2.10
2023-11-22T13:12:25.470Z,2.70
2023-11-22T13:14:52.973Z,2.20
2023-11-22T13:17:20.395Z,2.28
2023-11-22T13:19:50.547Z,1.58
2023-11-22T13:22:18.008Z,1.67
2023-11-22T13:24:45.243Z,1.50
2023-11-22T13:27:12.646Z,1.50
2023-11-22T13:29:40.040Z,1.83
2023-11-22T13:32:09.181Z,1.90
2023-11-22T13:34:36.984Z,2.33
2023-11-22T13:37:05.829Z,2.08
2023-11-22T13:39:36.988Z,1.85
2023-11-22T13:42:04.635Z,2.03
2023-11-22T13:44:33.047Z,1.30
2023-11-22T13:47:00.449Z,1.42
2023-11-22T13:49:28.047Z,1.67
2023-11-22T13:51:57.104Z,1.70
2023-11-22T13:54:26.708Z,1.50
2023-11-22T13:56:54.356Z,1.50
2023-11-22T13:59:21.673Z,1.88
2023-11-22T14:01:50.324Z,1.92
2023-11-22T14:04:18.936Z,1.38
2023-11-22T14:06:47.033Z,1.60
2023-11-22T14:09:15.913Z,1.13
2023-11-22T14:11:43.410Z,1.48
2023-11-22T14:14:13.335Z,1.58
2023-11-22T14:16:45.788Z,1.27
2023-11-22T14:19:14.372Z,1.63
2023-11-22T14:21:41.684Z,3.65
2023-11-22T14:24:09.804Z,1.60
2023-11-22T14:26:38.237Z,1.38
2023-11-22T14:29:07.029Z,1.52
2023-11-22T14:31:34.405Z,1.80
2023-11-22T14:34:02.784Z,1.50
2023-11-22T14:36:30.928Z,1.67
2023-11-22T14:38:58.400Z,1.55
2023-11-22T14:41:25.985Z,1.65
2023-11-22T14:43:53.295Z,1.63
2023-11-22T14:46:20.881Z,1.65
2023-11-22T14:48:50.049Z,1.80
2023-11-22T14:51:17.514Z,1.92
2023-11-22T14:53:44.868Z,2.13
2023-11-22T15:01:10.069Z,4.78
2023-11-22T15:03:37.639Z,6.22
2023-11-22T15:06:06.180Z,5.50
2023-11-22T15:08:34.790Z,4.45
2023-11-22T15:13:29.639Z,5.05
2023-11-22T15:15:57.743Z,5.88
2023-11-22T15:18:25.810Z,6.65
2023-11-22T15:20:53.595Z,9.38
2023-11-22T15:23:21.354Z,12.30
2023-11-22T15:25:48.871Z,12.73
2023-11-22T15:28:23.922Z,10.60
2023-11-22T15:30:59.159Z,8.10
2023-11-22T15:33:27.480Z,6.57
2023-11-22T15:35:55.135Z,5.55
2023-11-22T15:38:23.425Z,5.05
2023-11-22T15:40:50.988Z,4.80
2023-11-22T15:43:18.354Z,4.85
2023-11-22T15:45:45.655Z,4.60
2023-11-22T15:48:14.944Z,4.83
2023-11-22T15:50:42.378Z,4.45
2023-11-22T15:53:14.159Z,4.35
2023-11-22T15:55:41.675Z,4.43
2023-11-22T15:58:09.972Z,4.30
2023-11-22T16:00:37.504Z,4.80
2023-11-22T16:03:08.575Z,4.70
2023-11-22T16:05:36.030Z,4.55
2023-11-22T16:08:03.586Z,5.30
2023-11-22T16:10:30.968Z,5.47
2023-11-22T16:12:58.247Z,6.30
2023-11-22T16:15:25.711Z,5.38
2023-11-22T16:17:53.013Z,5.65
2023-11-22T16:20:22.831Z,6.00
2023-11-22T16:22:50.884Z,6.25
2023-11-22T16:25:23.812Z,5.97
2023-11-22T16:27:52.073Z,6.68
2023-11-22T16:30:19.335Z,6.05
2023-11-22T16:32:47.220Z,6.15
2023-11-22T16:35:17.318Z,4.88
2023-11-22T16:37:45.036Z,4.43
2023-11-22T16:40:13.556Z,4.47
2023-11-22T16:42:41.033Z,5.38
2023-11-22T16:45:09.050Z,5.30
2023-11-22T16:47:37.225Z,5.40
2023-11-22T16:50:06.229Z,5.43
2023-11-22T16:52:33.999Z,5.10
2023-11-22T16:55:01.813Z,4.85
2023-11-22T16:57:29.159Z,6.07
2023-11-22T16:59:56.535Z,7.72
2023-11-22T17:02:23.980Z,10.10
2023-11-22T17:04:51.389Z,5.53
2023-11-22T17:07:18.744Z,4.70
2023-11-22T17:09:46.102Z,5.10
2023-11-22T17:12:13.580Z,5.07
2023-11-22T17:14:40.840Z,4.60
2023-11-22T17:17:08.360Z,3.97
2023-11-22T17:19:35.700Z,6.78
2023-11-22T17:22:03.326Z,9.52
2023-11-22T17:24:30.787Z,5.70
2023-11-22T17:26:58.071Z,6.30
2023-11-22T17:29:25.822Z,7.00
2023-11-22T17:31:53.312Z,5.85
2023-11-22T17:34:21.977Z,4.53
2023-11-22T17:40:17.498Z,5.10
2023-11-22T17:42:45.865Z,5.35
2023-11-22T17:45:16.237Z,5.57
2023-11-22T17:47:44.869Z,5.40
2023-11-22T17:50:12.537Z,6.45
2023-11-22T17:52:39.822Z,6.40
2023-11-22T17:55:07.220Z,5.88
2023-11-22T17:57:34.523Z,6.30
2023-11-22T18:00:02.057Z,5.65
2023-11-22T18:02:29.592Z,6.50
2023-11-22T18:04:58.040Z,5.63
2023-11-22T18:07:25.427Z,5.85
2023-11-22T18:09:53.982Z,6.03
2023-11-22T18:12:21.302Z,5.75
2023-11-22T18:14:48.692Z,5.75
2023-11-22T18:17:17.518Z,5.82
2023-11-22T18:19:45.884Z,5.85
2023-11-22T18:22:28.202Z,5.72
2023-11-22T18:24:55.715Z,6.00
2023-11-22T18:27:23.241Z,5.60
2023-11-22T18:29:50.615Z,5.53
2023-11-22T18:32:18.139Z,6.20
2023-11-22T18:34:45.614Z,5.60
2023-11-22T18:37:13.027Z,5.43
2023-11-22T18:39:40.343Z,6.60
2023-11-22T18:42:07.946Z,6.28
2023-11-22T18:44:39.843Z,5.72
2023-11-22T18:47:09.047Z,5.93
2023-11-22T18:49:37.453Z,5.97
2023-11-22T18:52:05.451Z,5.95
2023-11-22T18:54:32.998Z,5.63
2023-11-22T18:57:01.505Z,5.88
2023-11-22T18:59:28.953Z,6.10
2023-11-22T19:01:58.838Z,5.75
2023-11-22T19:04:26.555Z,5.28
2023-11-22T19:06:54.253Z,5.72
2023-11-22T19:09:21.545Z,5.38
2023-11-22T19:11:49.300Z,5.72
2023-11-22T19:14:16.733Z,5.75
2023-11-22T19:16:45.444Z,7.65
2023-11-22T19:19:17.431Z,7.50
2023-11-22T19:21:44.871Z,6.40
2023-11-22T19:24:12.283Z,6.28
2023-11-22T19:26:39.851Z,6.05
2023-11-22T19:29:11.160Z,5.97
2023-11-22T19:31:38.580Z,6.50
2023-11-22T19:34:05.959Z,6.30
2023-11-22T19:36:33.399Z,6.05
2023-11-22T19:39:00.679Z,5.82
2023-11-22T19:41:28.595Z,6.20
2023-11-22T19:43:57.448Z,6.70
2023-11-22T19:46:24.956Z,9.77
2023-11-22T19:48:52.354Z,8.60
2023-11-22T19:51:20.689Z,8.95
2023-11-22T19:53:48.104Z,7.47
2023-11-22T19:56:15.507Z,8.50
2023-11-22T19:58:43.146Z,6.60
2023-11-22T20:01:10.513Z,9.05
2023-11-22T20:03:38.874Z,9.93
2023-11-22T20:06:06.393Z,8.25
2023-11-22T20:08:33.824Z,6.32
2023-11-22T20:11:01.249Z,6.43
2023-11-22T20:13:28.606Z,6.18
2023-11-22T20:15:55.981Z,7.47
2023-11-22T20:18:23.486Z,7.97
2023-11-22T20:20:51.073Z,6.88
2023-11-22T20:23:20.276Z,6.47
2023-11-22T20:25:47.725Z,7.07
2023-11-22T20:28:15.162Z,7.55
2023-11-22T20:30:42.571Z,8.00
2023-11-22T20:33:10.160Z,5.93
2023-11-22T20:35:37.596Z,7.20
2023-11-22T20:38:04.916Z,6.57
2023-11-22T20:40:32.624Z,6.25
2023-11-22T20:43:00.336Z,6.60
2023-11-22T20:45:27.647Z,7.80
2023-11-22T20:47:55.320Z,6.70
2023-11-22T20:50:26.662Z,6.55
2023-11-22T20:52:54.160Z,6.70
2023-11-22T20:55:21.439Z,7.85
2023-11-22T20:57:49.127Z,7.13
2023-11-22T21:00:18.116Z,6.50
2023-11-22T21:02:45.706Z,6.95
2023-11-22T21:05:13.236Z,7.57
2023-11-22T21:07:40.943Z,7.75
2023-11-22T21:10:08.805Z,7.13
2023-11-22T21:12:36.122Z,7.10
2023-11-22T21:15:03.869Z,7.40
2023-11-22T22:29:05.290Z,6.05
2023-11-22T22:31:32.722Z,6.00
2023-11-22T22:34:00.046Z,6.07
2023-11-22T22:36:27.517Z,6.20
2023-11-22T22:38:55.064Z,6.38
2023-11-22T22:41:23.912Z,6.45
2023-11-22T22:43:51.286Z,6.07
2023-11-22T22:46:19.658Z,6.28
2023-11-22T22:48:47.480Z,6.35
2023-11-22T22:51:18.556Z,6.72
2023-11-22T22:53:49.804Z,6.18
2023-11-22T22:56:20.629Z,6.53
2023-11-22T22:58:49.676Z,5.70
2023-11-22T23:01:17.346Z,5.00
2023-11-22T23:03:45.509Z,5.03
2023-11-22T23:06:26.700Z,6.30
2023-11-22T23:08:54.823Z,5.53
2023-11-22T23:11:23.356Z,5.13
2023-11-22T23:13:51.632Z,5.20
2023-11-22T23:16:19.029Z,5.78
2023-11-22T23:18:47.898Z,5.20
2023-11-22T23:21:18.001Z,5.72
2023-11-22T23:23:46.430Z,7.20
2023-11-22T23:26:14.029Z,6.07
2023-11-22T23:28:41.383Z,5.53
2023-11-22T23:31:08.813Z,5.25
2023-11-22T23:33:38.486Z,5.93
2023-11-22T23:36:09.568Z,6.07
2023-11-22T23:38:37.643Z,6.03
2023-11-22T23:41:05.445Z,6.35
2023-11-22T23:43:37.309Z,6.50
2023-11-22T23:46:05.245Z,7.65
2023-11-22T23:48:35.131Z,6.35
2023-11-22T23:51:02.847Z,5.75
2023-11-22T23:53:30.241Z,6.07
2023-11-22T23:55:57.664Z,5.05
2023-11-22T23:58:25.120Z,5.32
